createdAt,value
2022-09-25T00:00:51.814Z,99.90
2022-09-25T00:03:19.045Z,99.90
2022-09-25T00:05:46.936Z,99.90
2022-09-25T00:08:14.806Z,99.90
2022-09-25T00:10:47.284Z,99.90
2022-09-25T00:13:18.837Z,99.90
2022-09-25T00:15:51.068Z,99.90
2022-09-25T00:18:41.522Z,99.90
2022-09-25T00:21:12.452Z,99.90
2022-09-25T00:23:40.256Z,99.90
2022-09-25T00:26:08.104Z,99.90
2022-09-25T00:28:36.374Z,99.90
2022-09-25T00:31:05.415Z,99.90
2022-09-25T00:33:33.720Z,99.90
2022-09-25T00:36:05.298Z,99.90
2022-09-25T00:38:32.895Z,99.90
2022-09-25T00:41:00.091Z,99.90
2022-09-25T00:43:55.330Z,99.90
2022-09-25T00:46:42.249Z,99.90
2022-09-25T00:49:14.098Z,99.90
2022-09-25T00:51:46.303Z,99.90
2022-09-25T00:54:18.898Z,99.90
2022-09-25T00:56:50.251Z,99.90
2022-09-25T00:59:24.605Z,99.90
2022-09-25T01:01:51.376Z,99.90
2022-09-25T01:04:22.520Z,99.90
2022-09-25T01:06:50.438Z,99.90
2022-09-25T01:09:18.244Z,99.90
2022-09-25T01:11:45.143Z,99.90
2022-09-25T01:14:17.237Z,99.90
2022-09-25T01:17:02.301Z,99.90
2022-09-25T01:19:42.486Z,99.90
2022-09-25T01:22:28.494Z,99.90
2022-09-25T01:25:20.697Z,99.90
2022-09-25T01:28:11.947Z,99.90
2022-09-25T01:30:43.878Z,99.90
2022-09-25T01:33:27.270Z,99.90
2022-09-25T01:36:07.598Z,99.90
2022-09-25T01:38:50.118Z,99.90
2022-09-25T01:41:19.611Z,99.90
2022-09-25T01:43:58.194Z,99.90
2022-09-25T01:46:30.293Z,99.90
2022-09-25T01:49:01.774Z,99.90
2022-09-25T01:51:37.030Z,99.90
2022-09-25T01:54:18.688Z,99.90
2022-09-25T01:57:04.891Z,99.90
2022-09-25T01:59:44.074Z,99.90
2022-09-25T02:02:16.568Z,99.90
2022-09-25T02:04:55.049Z,99.90
2022-09-25T02:07:29.567Z,99.90
2022-09-25T02:10:02.684Z,99.90
2022-09-25T02:12:36.035Z,99.90
2022-09-25T02:15:10.963Z,99.90
2022-09-25T02:18:10.421Z,99.90
2022-09-25T02:20:41.934Z,99.90
2022-09-25T02:23:19.303Z,99.90
2022-09-25T02:25:57.260Z,99.90
2022-09-25T02:28:23.836Z,99.90
2022-09-25T02:30:53.208Z,99.90
2022-09-25T02:33:19.916Z,99.90
2022-09-25T02:35:46.621Z,99.90
2022-09-25T02:38:14.750Z,99.90
2022-09-25T02:40:57.764Z,99.90
2022-09-25T02:43:53.199Z,99.90
2022-09-25T02:46:46.216Z,99.90
2022-09-25T02:49:40.185Z,99.90
2022-09-25T02:52:21.308Z,99.90
2022-09-25T02:54:57.123Z,99.90
2022-09-25T02:57:34.512Z,99.90
2022-09-25T03:00:07.323Z,99.90
2022-09-25T03:02:37.747Z,99.90
2022-09-25T03:05:06.739Z,99.90
2022-09-25T03:07:53.792Z,99.90
2022-09-25T03:10:21.341Z,99.90
2022-09-25T03:12:47.999Z,99.90
2022-09-25T03:15:14.708Z,99.90
2022-09-25T03:17:41.561Z,99.90
2022-09-25T03:20:09.871Z,99.90
2022-09-25T03:22:37.487Z,99.90
2022-09-25T03:25:05.501Z,99.90
2022-09-25T03:27:32.111Z,99.90
2022-09-25T03:29:58.726Z,99.90
2022-09-25T03:32:25.340Z,99.90
2022-09-25T03:34:51.904Z,99.90
2022-09-25T03:37:18.586Z,99.90
2022-09-25T03:39:45.170Z,99.90
2022-09-25T03:42:11.722Z,99.90
2022-09-25T03:44:38.285Z,99.90
2022-09-25T03:47:04.870Z,99.90
2022-09-25T03:49:31.441Z,99.90
2022-09-25T03:51:59.993Z,99.90
2022-09-25T03:54:26.586Z,99.90
2022-09-25T03:56:53.199Z,99.90
2022-09-25T03:59:19.783Z,99.90
2022-09-25T04:01:47.367Z,99.90
2022-09-25T04:04:14.314Z,99.90
2022-09-25T04:06:40.933Z,99.90
2022-09-25T04:09:07.578Z,99.90
2022-09-25T04:11:35.651Z,99.90
2022-09-25T04:14:02.203Z,99.90
2022-09-25T04:16:29.427Z,99.90
2022-09-25T04:18:56.068Z,99.90
2022-09-25T04:21:22.950Z,99.90
2022-09-25T04:24:08.177Z,99.90
2022-09-25T04:26:35.248Z,99.90
2022-09-25T04:29:01.970Z,99.90
2022-09-25T04:31:29.656Z,99.90
2022-09-25T04:33:56.316Z,99.90
2022-09-25T04:36:22.912Z,99.90
2022-09-25T04:38:49.797Z,99.90
2022-09-25T04:41:19.547Z,99.90
2022-09-25T04:43:46.250Z,99.90
2022-09-25T04:46:20.016Z,99.90
2022-09-25T04:48:47.916Z,99.90
2022-09-25T04:51:14.538Z,99.90
2022-09-25T04:53:41.459Z,99.90
2022-09-25T04:56:14.594Z,99.90
2022-09-25T04:58:46.062Z,99.90
2022-09-25T05:01:12.752Z,99.90
2022-09-25T05:03:39.448Z,99.90
2022-09-25T05:06:06.335Z,99.90
2022-09-25T05:08:32.931Z,99.90
2022-09-25T05:11:00.016Z,99.90
2022-09-25T05:13:28.000Z,99.90
2022-09-25T05:15:55.164Z,99.90
2022-09-25T05:18:24.046Z,99.90
2022-09-25T05:20:53.259Z,99.90
2022-09-25T05:23:20.991Z,99.90
2022-09-25T05:26:03.708Z,99.90
2022-09-25T05:28:33.702Z,99.90
2022-09-25T05:31:03.365Z,99.90
2022-09-25T05:33:34.462Z,99.90
2022-09-25T05:36:05.480Z,99.90
2022-09-25T05:38:33.277Z,99.90
2022-09-25T05:41:04.853Z,99.90
2022-09-25T05:43:32.404Z,99.90
2022-09-25T05:46:00.030Z,99.90
2022-09-25T05:48:26.936Z,99.90
2022-09-25T05:50:54.696Z,99.90
2022-09-25T05:53:21.806Z,99.90
2022-09-25T05:55:53.039Z,99.90
2022-09-25T05:58:20.852Z,99.90
2022-09-25T06:00:48.663Z,99.90
2022-09-25T06:03:16.032Z,99.90
2022-09-25T06:05:44.072Z,99.90
2022-09-25T06:08:11.118Z,99.90
2022-09-25T06:10:37.676Z,99.90
2022-09-25T06:13:07.126Z,99.90
2022-09-25T06:15:37.621Z,99.90
2022-09-25T06:18:05.576Z,99.90
2022-09-25T06:20:32.487Z,99.90
2022-09-25T06:23:03.014Z,99.90
2022-09-25T06:29:16.978Z,99.90
2022-09-25T06:31:44.739Z,99.90
2022-09-25T06:34:12.275Z,99.90
2022-09-25T06:36:39.295Z,99.90
2022-09-25T06:39:06.316Z,99.90
2022-09-25T06:41:32.951Z,99.90
2022-09-25T06:43:59.882Z,99.90
2022-09-25T06:46:26.695Z,99.90
2022-09-25T06:48:54.921Z,99.90
2022-09-25T06:51:22.571Z,99.90
2022-09-25T06:53:53.332Z,99.90
2022-09-25T06:56:20.521Z,99.90
2022-09-25T06:58:47.135Z,99.90
2022-09-25T07:01:13.959Z,99.90
2022-09-25T07:03:47.412Z,99.90
2022-09-25T07:06:16.882Z,99.90
2022-09-25T07:08:44.561Z,99.90
2022-09-25T07:11:16.898Z,99.90
2022-09-25T07:13:43.485Z,99.90
2022-09-25T07:16:15.886Z,99.90
2022-09-25T07:18:43.823Z,99.90
2022-09-25T07:21:15.959Z,99.90
2022-09-25T07:23:43.347Z,99.90
2022-09-25T07:26:22.122Z,99.90
2022-09-25T07:28:57.094Z,99.90
2022-09-25T07:31:29.317Z,99.90
2022-09-25T07:33:57.173Z,99.90
2022-09-25T07:36:23.735Z,99.90
2022-09-25T07:38:53.679Z,99.90
2022-09-25T07:41:22.637Z,99.90
2022-09-25T07:46:44.636Z,99.90
2022-09-25T07:49:12.077Z,99.90
2022-09-25T07:51:38.865Z,99.90
2022-09-25T07:54:05.602Z,99.90
2022-09-25T07:56:34.393Z,99.90
2022-09-25T07:59:01.261Z,99.90
2022-09-25T08:01:28.014Z,99.90
2022-09-25T08:03:54.820Z,99.90
2022-09-25T08:06:21.601Z,99.90
2022-09-25T08:08:48.197Z,99.90
2022-09-25T08:11:17.058Z,99.90
2022-09-25T08:13:45.095Z,99.90
2022-09-25T08:16:18.018Z,99.90
2022-09-25T08:18:46.546Z,99.90
2022-09-25T08:21:15.814Z,99.90
2022-09-25T08:23:47.667Z,99.90
2022-09-25T08:26:15.361Z,99.90
2022-09-25T08:28:42.259Z,99.90
2022-09-25T08:31:09.118Z,99.90
2022-09-25T08:33:37.198Z,99.90
2022-09-25T08:36:05.499Z,99.90
2022-09-25T08:38:33.210Z,99.90
2022-09-25T08:41:03.741Z,99.90
2022-09-25T08:43:33.271Z,99.90
2022-09-25T08:46:23.485Z,99.90
2022-09-25T08:49:06.256Z,99.90
2022-09-25T08:51:40.441Z,99.90
2022-09-25T08:54:09.572Z,99.90
2022-09-25T08:56:36.371Z,99.90
2022-09-25T08:59:05.677Z,99.90
2022-09-25T09:01:49.812Z,99.90
2022-09-25T09:04:19.037Z,99.90
2022-09-25T09:06:53.270Z,99.90
2022-09-25T09:09:42.294Z,99.90
2022-09-25T09:12:42.758Z,99.90
2022-09-25T09:15:36.122Z,99.90
2022-09-25T09:18:25.600Z,99.90
2022-09-25T09:20:57.461Z,99.90
2022-09-25T09:23:34.667Z,99.90
2022-09-25T09:26:08.334Z,99.90
2022-09-25T09:29:07.635Z,99.90
2022-09-25T09:31:53.636Z,99.90
2022-09-25T09:35:05.802Z,99.90
2022-09-25T09:37:39.252Z,99.90
2022-09-25T09:40:15.272Z,99.90
2022-09-25T09:43:10.911Z,99.90
2022-09-25T09:45:59.409Z,99.90
2022-09-25T09:49:12.022Z,99.90
2022-09-25T09:51:47.032Z,99.90
2022-09-25T09:54:55.804Z,99.90
2022-09-25T09:57:42.173Z,99.90
2022-09-25T10:00:17.922Z,99.90
2022-09-25T10:02:54.252Z,99.90
2022-09-25T10:05:28.888Z,99.90
2022-09-25T10:07:56.223Z,99.90
2022-09-25T10:10:29.569Z,99.90
2022-09-25T10:12:56.738Z,99.90
2022-09-25T10:15:39.225Z,99.90
2022-09-25T10:18:06.489Z,99.90
2022-09-25T10:20:50.473Z,99.90
2022-09-25T10:23:42.719Z,99.90
2022-09-25T10:26:30.811Z,99.90
2022-09-25T10:29:03.270Z,99.90
2022-09-25T10:31:34.345Z,99.90
2022-09-25T10:34:04.187Z,99.90
2022-09-25T10:36:42.967Z,99.90
2022-09-25T10:39:44.277Z,99.90
2022-09-25T10:42:40.970Z,99.90
2022-09-25T10:45:22.592Z,99.90
2022-09-25T10:48:09.825Z,99.90
2022-09-25T10:50:39.243Z,99.90
2022-09-25T10:53:07.417Z,99.90
2022-09-25T10:55:37.641Z,99.90
2022-09-25T10:58:16.083Z,99.90
2022-09-25T11:00:53.926Z,99.90
2022-09-25T11:03:39.860Z,99.90
2022-09-25T11:06:27.252Z,99.90
2022-09-25T11:09:22.064Z,99.90
2022-09-25T11:11:50.047Z,99.90
2022-09-25T11:14:32.741Z,99.90
2022-09-25T11:17:02.590Z,99.90
2022-09-25T11:19:38.897Z,99.90
2022-09-25T11:22:11.695Z,99.90
2022-09-25T11:25:07.452Z,99.90
2022-09-25T11:27:49.000Z,1.00
2022-09-25T11:30:19.051Z,99.90
2022-09-25T11:32:52.432Z,99.90
2022-09-25T11:35:47.167Z,99.90
2022-09-25T11:39:14.317Z,6.30
2022-09-25T11:41:51.870Z,99.90
2022-09-25T11:45:02.491Z,26.00
2022-09-25T11:47:58.566Z,99.90
2022-09-25T11:50:51.016Z,79.30
2022-09-25T11:54:07.245Z,99.90
2022-09-25T11:57:13.072Z,1.00
2022-09-25T11:59:47.805Z,1.00
2022-09-25T12:02:27.818Z,99.90
2022-09-25T12:05:37.860Z,99.90
2022-09-25T12:08:18.818Z,1.00
2022-09-25T12:11:05.264Z,58.80
2022-09-25T12:13:54.468Z,99.90
2022-09-25T12:16:41.989Z,99.90
2022-09-25T12:19:31.730Z,99.90
2022-09-25T12:22:32.497Z,99.90
2022-09-25T12:25:36.545Z,25.40
2022-09-25T12:28:12.104Z,99.90
2022-09-25T12:31:13.566Z,1.00
2022-09-25T12:33:40.190Z,99.90
2022-09-25T12:36:11.013Z,1.00
2022-09-25T12:39:08.846Z,15.80
2022-09-25T12:41:47.141Z,99.90
2022-09-25T12:44:31.198Z,99.90
2022-09-25T12:47:07.074Z,99.90
2022-09-25T12:49:40.574Z,1.00
2022-09-25T12:52:18.431Z,99.90
2022-09-25T12:54:59.652Z,99.90
2022-09-25T12:58:18.260Z,99.90
2022-09-25T13:00:49.503Z,99.90
2022-09-25T13:03:46.122Z,99.90
2022-09-25T13:06:19.241Z,99.90
2022-09-25T13:09:02.441Z,99.90
2022-09-25T13:11:54.963Z,1.00
2022-09-25T13:14:34.449Z,1.00
2022-09-25T13:17:02.121Z,99.90
2022-09-25T13:19:33.013Z,99.90
2022-09-25T13:22:05.799Z,99.90
2022-09-25T13:24:39.692Z,99.90
2022-09-25T13:27:12.341Z,99.90
2022-09-25T13:29:39.603Z,1.00
2022-09-25T13:32:18.915Z,96.60
2022-09-25T13:34:48.988Z,99.90
2022-09-25T13:37:16.343Z,99.90
2022-09-25T13:40:06.980Z,99.90
2022-09-25T13:42:39.910Z,99.90
2022-09-25T13:45:22.270Z,1.00
2022-09-25T13:48:07.269Z,1.00
2022-09-25T13:50:39.958Z,1.00
2022-09-25T13:53:18.602Z,1.00
2022-09-25T13:55:48.165Z,1.00
2022-09-25T13:58:21.441Z,1.00
2022-09-25T14:00:53.517Z,1.00
2022-09-25T14:03:41.549Z,1.00
2022-09-25T14:06:34.551Z,1.00
2022-09-25T14:09:22.373Z,1.00
2022-09-25T14:12:11.856Z,1.00
2022-09-25T14:14:53.211Z,1.00
2022-09-25T14:17:23.311Z,1.00
2022-09-25T14:19:53.972Z,1.00
2022-09-25T14:22:53.615Z,1.00
2022-09-25T14:25:36.444Z,1.00
2022-09-25T14:28:17.034Z,1.00
2022-09-25T14:31:15.249Z,99.90
2022-09-25T14:34:19.064Z,99.90
2022-09-25T14:37:05.246Z,99.90
2022-09-25T14:39:40.881Z,99.90
2022-09-25T14:42:31.612Z,99.90
2022-09-25T14:45:39.986Z,99.90
2022-09-25T14:48:24.599Z,99.90
2022-09-25T14:50:58.525Z,99.90
2022-09-25T14:53:34.675Z,99.90
2022-09-25T14:56:03.955Z,99.90
2022-09-25T14:58:32.804Z,99.90
2022-09-25T15:01:32.598Z,99.90
2022-09-25T15:04:05.994Z,99.90
2022-09-25T15:06:35.384Z,99.90
2022-09-25T15:09:03.114Z,99.90
2022-09-25T15:11:43.156Z,99.90
2022-09-25T15:14:21.549Z,99.90
2022-09-25T15:17:08.198Z,99.90
2022-09-25T15:19:42.409Z,99.90
2022-09-25T15:22:17.902Z,99.90
2022-09-25T15:25:05.814Z,99.90
2022-09-25T15:27:33.067Z,99.90
2022-09-25T15:30:00.433Z,99.90
2022-09-25T15:32:39.560Z,99.90
2022-09-25T15:35:23.500Z,99.90
2022-09-25T15:37:50.208Z,99.90
2022-09-25T15:40:16.789Z,99.90
2022-09-25T15:42:48.284Z,99.90
2022-09-25T15:45:42.641Z,99.90
2022-09-25T15:48:31.149Z,99.90
2022-09-25T15:51:01.963Z,99.90
2022-09-25T15:53:43.735Z,99.90
2022-09-25T15:56:27.278Z,99.90
2022-09-25T15:59:01.660Z,99.90
2022-09-25T16:01:49.925Z,99.90
2022-09-25T16:04:39.184Z,99.90
2022-09-25T16:07:36.441Z,99.90
2022-09-25T16:10:17.805Z,99.90
2022-09-25T16:12:49.699Z,99.90
2022-09-25T16:15:29.680Z,99.90
2022-09-25T16:18:04.351Z,99.90
2022-09-25T16:20:39.370Z,99.90
2022-09-25T16:23:16.970Z,99.90
2022-09-25T16:25:44.830Z,99.90
2022-09-25T16:28:22.516Z,99.90
2022-09-25T16:31:04.763Z,99.90
2022-09-25T16:33:39.984Z,99.90
2022-09-25T16:36:17.889Z,99.90
2022-09-25T16:39:10.880Z,99.90
2022-09-25T16:41:38.662Z,99.90
2022-09-25T16:44:36.356Z,99.90
2022-09-25T16:47:14.272Z,99.90
2022-09-25T16:49:43.461Z,99.90
2022-09-25T16:52:20.395Z,99.90
2022-09-25T16:54:53.305Z,99.90
2022-09-25T16:57:24.810Z,99.90
2022-09-25T16:59:52.246Z,99.90
2022-09-25T17:02:36.384Z,6.70
2022-09-25T17:05:06.948Z,99.90
2022-09-25T17:07:33.673Z,99.90
2022-09-25T17:10:01.402Z,99.90
2022-09-25T17:12:30.127Z,99.90
2022-09-25T17:14:57.625Z,99.90
2022-09-25T17:17:24.204Z,99.90
2022-09-25T17:19:50.922Z,99.90
2022-09-25T17:22:18.004Z,99.90
2022-09-25T17:24:44.828Z,99.90
2022-09-25T17:27:13.826Z,99.90
2022-09-25T17:29:41.956Z,99.90
2022-09-25T17:32:17.301Z,99.90
2022-09-25T17:34:46.089Z,99.90
2022-09-25T17:37:13.560Z,73.80
2022-09-25T17:39:40.194Z,77.90
2022-09-25T17:42:06.996Z,81.70
2022-09-25T17:44:33.683Z,87.60
2022-09-25T17:47:01.765Z,99.90
2022-09-25T17:49:28.954Z,99.90
2022-09-25T17:51:55.774Z,99.90
2022-09-25T17:54:23.271Z,99.90
2022-09-25T17:56:50.387Z,99.90
2022-09-25T17:59:17.314Z,99.90
2022-09-25T18:01:44.421Z,99.90
2022-09-25T18:04:22.943Z,99.90
2022-09-25T18:06:50.501Z,99.90
2022-09-25T18:09:18.129Z,99.90
2022-09-25T18:11:45.013Z,99.90
2022-09-25T18:14:13.890Z,99.90
2022-09-25T18:16:42.514Z,99.90
2022-09-25T18:19:38.535Z,99.90
2022-09-25T18:22:19.399Z,99.90
2022-09-25T18:24:56.156Z,99.90
2022-09-25T18:27:32.149Z,99.90
2022-09-25T18:29:59.033Z,99.90
2022-09-25T18:32:26.026Z,99.90
2022-09-25T18:34:53.125Z,99.90
2022-09-25T18:37:20.048Z,99.90
2022-09-25T18:39:47.894Z,99.90
2022-09-25T18:42:17.352Z,99.90
2022-09-25T18:44:44.219Z,99.90
2022-09-25T18:47:13.818Z,99.90
2022-09-25T18:49:42.265Z,99.90
2022-09-25T18:52:10.441Z,99.90
2022-09-25T18:54:37.158Z,99.90
2022-09-25T18:57:03.805Z,99.90
2022-09-25T18:59:30.423Z,99.90
2022-09-25T19:01:57.451Z,99.90
2022-09-25T19:04:25.659Z,99.90
2022-09-25T19:06:52.993Z,99.90
2022-09-25T19:09:28.031Z,99.90
2022-09-25T19:11:55.299Z,99.90
2022-09-25T19:14:23.881Z,99.90
2022-09-25T19:16:53.573Z,99.90
2022-09-25T19:19:20.487Z,99.90
2022-09-25T19:21:47.091Z,99.90
2022-09-25T19:24:13.798Z,99.90
2022-09-25T19:26:42.612Z,99.90
2022-09-25T19:29:09.248Z,99.90
2022-09-25T19:31:36.738Z,99.90
2022-09-25T19:34:04.556Z,99.90
2022-09-25T19:36:34.312Z,99.90
2022-09-25T19:39:02.103Z,99.90
2022-09-25T19:41:35.288Z,99.90
2022-09-25T19:44:11.301Z,99.90
2022-09-25T19:46:41.321Z,99.90
2022-09-25T19:49:08.062Z,99.90
2022-09-25T19:51:34.817Z,99.90
2022-09-25T19:54:01.580Z,99.90
2022-09-25T19:56:28.225Z,99.90
2022-09-25T19:58:55.261Z,99.90
2022-09-25T20:01:27.522Z,99.90
2022-09-25T20:03:57.841Z,99.90
2022-09-25T20:06:26.335Z,99.90
2022-09-25T20:08:57.844Z,99.90
2022-09-25T20:11:25.153Z,99.90
2022-09-25T20:13:53.837Z,99.90
2022-09-25T20:16:25.064Z,99.90
2022-09-25T20:19:00.155Z,99.90
2022-09-25T20:21:28.489Z,99.90
2022-09-25T20:23:58.912Z,99.90
2022-09-25T20:26:26.235Z,99.90
2022-09-25T20:28:54.997Z,99.90
2022-09-25T20:31:22.047Z,99.90
2022-09-25T20:33:49.531Z,99.90
2022-09-25T20:36:17.248Z,99.90
2022-09-25T20:38:45.445Z,99.90
2022-09-25T20:41:13.687Z,99.90
2022-09-25T20:43:41.128Z,99.90
2022-09-25T20:46:10.308Z,99.90
2022-09-25T20:48:42.293Z,99.90
2022-09-25T20:51:11.339Z,99.90
2022-09-25T20:53:38.842Z,99.90
2022-09-25T20:56:10.629Z,99.90
2022-09-25T20:58:38.936Z,99.90
2022-09-25T21:01:28.181Z,99.90
2022-09-25T21:03:55.438Z,99.90
2022-09-25T21:06:24.763Z,99.90
2022-09-25T21:08:53.503Z,99.90
2022-09-25T21:11:20.711Z,99.90
2022-09-25T21:13:52.777Z,99.90
2022-09-25T21:16:21.050Z,99.90
2022-09-25T21:18:58.981Z,99.90
2022-09-25T21:21:26.689Z,99.90
2022-09-25T21:23:55.678Z,99.90
2022-09-25T21:26:25.598Z,99.90
2022-09-25T21:28:54.607Z,99.90
2022-09-25T21:31:26.456Z,99.90
2022-09-25T21:33:57.295Z,99.90
2022-09-25T21:36:25.496Z,99.90
2022-09-25T21:38:52.759Z,99.90
2022-09-25T21:41:22.572Z,99.90
2022-09-25T21:43:56.420Z,99.90
2022-09-25T21:46:24.325Z,99.90
2022-09-25T21:48:53.838Z,99.90
2022-09-25T21:51:22.493Z,99.90
2022-09-25T21:53:49.105Z,99.90
2022-09-25T21:56:18.779Z,99.90
2022-09-25T21:58:46.207Z,99.90
2022-09-25T22:01:12.854Z,99.90
2022-09-25T22:03:41.370Z,99.90
2022-09-25T22:06:13.595Z,99.90
2022-09-25T22:08:43.065Z,99.90
2022-09-25T22:11:10.861Z,99.90
2022-09-25T22:13:40.186Z,99.90
2022-09-25T22:16:31.640Z,99.90
2022-09-25T22:19:02.683Z,99.90
2022-09-25T22:21:31.513Z,99.90
2022-09-25T22:23:58.743Z,99.90
2022-09-25T22:26:26.743Z,99.90
2022-09-25T22:28:53.775Z,99.90
2022-09-25T22:31:23.352Z,99.90
2022-09-25T22:33:54.834Z,99.90
2022-09-25T22:36:21.896Z,99.90
2022-09-25T22:38:48.476Z,99.90
2022-09-25T22:41:15.375Z,99.90
2022-09-25T22:43:42.715Z,99.90
2022-09-25T22:46:11.171Z,99.90
2022-09-25T22:48:38.307Z,99.90
2022-09-25T22:51:17.250Z,99.90
2022-09-25T22:53:44.702Z,99.90
2022-09-25T22:56:15.764Z,99.90
2022-09-25T22:58:46.378Z,99.90
2022-09-25T23:01:20.294Z,99.90
2022-09-25T23:03:47.195Z,99.90
2022-09-25T23:06:14.092Z,99.90
2022-09-25T23:08:40.908Z,99.90
2022-09-25T23:11:08.441Z,99.90
2022-09-25T23:13:36.064Z,99.90
2022-09-25T23:16:07.920Z,99.90
2022-09-25T23:18:38.160Z,99.90
2022-09-25T23:21:05.265Z,99.90
2022-09-25T23:23:32.325Z,99.90
2022-09-25T23:26:06.015Z,99.90
2022-09-25T23:28:37.699Z,99.90
2022-09-25T23:31:15.720Z,99.90
2022-09-25T23:33:43.035Z,99.90
2022-09-25T23:36:21.477Z,99.90
2022-09-25T23:38:50.758Z,99.90
2022-09-25T23:41:45.329Z,99.90
2022-09-25T23:44:12.349Z,99.90
2022-09-25T23:46:41.104Z,99.90
2022-09-25T23:49:08.721Z,99.90
2022-09-25T23:51:35.720Z,99.90
2022-09-25T23:54:03.406Z,99.90
2022-09-25T23:56:32.722Z,99.90
2022-09-25T23:59:01.519Z,99.90
